createdAt,value
2019-01-31T00:02:23.273Z,97279.48
2019-01-31T00:05:18.424Z,97276.18
2019-01-31T00:08:16.294Z,97268.73
2019-01-31T00:10:53.175Z,97268.52
2019-01-31T00:13:45.194Z,97256.16
2019-01-31T00:16:30.421Z,97254.02
2019-01-31T00:19:37.792Z,97249.05
2019-01-31T00:22:26.560Z,97249.56
2019-01-31T00:25:03.112Z,97249.72
2019-01-31T00:27:37.266Z,97245.92
2019-01-31T00:30:20.361Z,97240.44
2019-01-31T00:33:21.514Z,97241.00
2019-01-31T00:36:28.681Z,97240.21
2019-01-31T00:39:28.057Z,97244.20
2019-01-31T00:42:05.033Z,97236.45
2019-01-31T00:44:47.831Z,97237.95
2019-01-31T00:47:24.585Z,97229.36
2019-01-31T00:50:04.255Z,97227.66
2019-01-31T00:52:49.740Z,97228.79
2019-01-31T00:55:38.395Z,97220.29
2019-01-31T00:58:41.213Z,97219.50
2019-01-31T01:01:32.816Z,97217.84
2019-01-31T01:04:34.070Z,97221.79
2019-01-31T01:07:19.978Z,97215.22
2019-01-31T01:10:02.972Z,97219.81
2019-01-31T01:12:51.735Z,97221.27
2019-01-31T01:15:36.233Z,97218.97
2019-01-31T01:18:34.479Z,97209.20
2019-01-31T01:21:14.058Z,97208.97
2019-01-31T01:24:05.540Z,97208.64
2019-01-31T01:26:59.070Z,97216.34
2019-01-31T01:29:39.160Z,97207.89
2019-01-31T01:32:34.625Z,97207.38
2019-01-31T01:35:26.629Z,97208.58
2019-01-31T01:38:15.857Z,97214.52
2019-01-31T01:41:10.677Z,97221.42
2019-01-31T01:44:11.994Z,97224.19
2019-01-31T01:47:06.412Z,97220.99
2019-01-31T01:49:58.385Z,97217.28
2019-01-31T01:52:50.338Z,97220.66
2019-01-31T01:56:00.001Z,97217.98
2019-01-31T01:58:39.154Z,97217.32
2019-01-31T02:01:31.383Z,97212.52
2019-01-31T02:04:05.538Z,97211.87
2019-01-31T02:06:47.848Z,97207.36
2019-01-31T02:09:53.271Z,97206.56
2019-01-31T02:12:43.695Z,97208.81
2019-01-31T02:15:26.547Z,97196.00
2019-01-31T02:18:09.503Z,97202.23
2019-01-31T02:20:58.429Z,97200.27
2019-01-31T02:23:35.242Z,97201.93
2019-01-31T02:26:14.545Z,97193.55
2019-01-31T02:29:03.340Z,97193.42
2019-01-31T02:31:58.379Z,97186.38
2019-01-31T02:34:41.106Z,97181.75
2019-01-31T02:37:26.536Z,97183.21
2019-01-31T02:40:12.253Z,97174.06
2019-01-31T02:42:49.130Z,97176.59
2019-01-31T02:45:44.172Z,97181.25
2019-01-31T02:48:24.568Z,97178.72
2019-01-31T02:51:16.012Z,97177.88
2019-01-31T02:54:04.328Z,97169.78
2019-01-31T02:57:05.940Z,97160.45
2019-01-31T03:00:10.053Z,97167.58
2019-01-31T03:03:07.528Z,97166.50
2019-01-31T03:06:17.288Z,97155.41
2019-01-31T03:09:07.838Z,97152.27
2019-01-31T03:11:44.905Z,97155.64
2019-01-31T03:14:19.235Z,97147.67
2019-01-31T03:17:02.130Z,97135.42
2019-01-31T03:19:57.381Z,97139.98
2019-01-31T03:22:34.238Z,97136.27
2019-01-31T03:25:26.325Z,97131.91
2019-01-31T03:28:22.709Z,97131.48
2019-01-31T03:31:30.251Z,97131.58
2019-01-31T03:34:10.381Z,97128.65
2019-01-31T03:37:16.318Z,97118.23
2019-01-31T03:40:07.687Z,97112.37
2019-01-31T03:43:05.220Z,97115.84
2019-01-31T03:45:57.053Z,97116.73
2019-01-31T03:49:07.557Z,97114.11
2019-01-31T03:51:53.010Z,97116.23
2019-01-31T03:54:42.423Z,97114.34
2019-01-31T03:57:24.776Z,97112.33
2019-01-31T03:59:58.918Z,97116.37
2019-01-31T04:02:41.559Z,97118.19
2019-01-31T04:05:15.697Z,97122.94
2019-01-31T04:07:45.143Z,97124.06
2019-01-31T04:10:19.018Z,97127.72
2019-01-31T04:12:45.809Z,97130.87
2019-01-31T04:15:15.232Z,97133.50
2019-01-31T04:17:44.674Z,97125.05
2019-01-31T04:20:14.345Z,97125.48
2019-01-31T04:22:43.798Z,97120.36
2019-01-31T04:25:13.362Z,97121.06
2019-01-31T04:27:42.801Z,97124.34
2019-01-31T04:30:16.805Z,97114.81
2019-01-31T04:32:46.245Z,97116.32
2019-01-31T04:35:15.675Z,97120.45
2019-01-31T04:37:45.118Z,97120.92
2019-01-31T04:40:14.549Z,97115.42
2019-01-31T04:42:43.996Z,97112.43
2019-01-31T04:45:13.487Z,97109.84
2019-01-31T04:47:42.934Z,97108.06
2019-01-31T04:50:14.879Z,97106.32
2019-01-31T04:52:44.319Z,97104.16
2019-01-31T04:55:13.813Z,97106.93
2019-01-31T04:57:43.254Z,97107.02
2019-01-31T05:00:18.388Z,97106.19
2019-01-31T05:02:47.830Z,97107.92
2019-01-31T05:05:17.475Z,97105.14
2019-01-31T05:07:46.933Z,97104.81
2019-01-31T05:10:18.124Z,97098.53
2019-01-31T05:12:47.574Z,97104.06
2019-01-31T05:15:17.073Z,97098.42
2019-01-31T05:17:46.526Z,97106.20
2019-01-31T05:20:18.178Z,97109.85
2019-01-31T05:22:47.624Z,97107.47
2019-01-31T05:25:17.423Z,97098.76
2019-01-31T05:27:46.861Z,97094.72
2019-01-31T05:30:17.430Z,97096.93
2019-01-31T05:32:46.865Z,97101.39
2019-01-31T05:35:17.072Z,97101.77
2019-01-31T05:37:46.513Z,97095.28
2019-01-31T05:40:16.310Z,97096.69
2019-01-31T05:42:45.742Z,97096.23
2019-01-31T05:45:16.591Z,97095.14
2019-01-31T05:47:46.025Z,97095.63
2019-01-31T05:50:17.560Z,97087.88
2019-01-31T05:52:46.999Z,97089.83
2019-01-31T05:55:16.510Z,97087.85
2019-01-31T05:57:45.937Z,97086.78
2019-01-31T06:00:23.964Z,97090.72
2019-01-31T06:02:53.455Z,97088.14
2019-01-31T06:05:23.045Z,97087.30
2019-01-31T06:07:52.478Z,97087.08
2019-01-31T06:10:21.987Z,97090.36
2019-01-31T06:12:51.419Z,97095.09
2019-01-31T06:15:20.918Z,97099.84
2019-01-31T06:17:50.463Z,97098.25
2019-01-31T06:20:23.751Z,97098.05
2019-01-31T06:22:53.252Z,97100.50
2019-01-31T06:25:22.689Z,97113.26
2019-01-31T06:27:52.121Z,97117.91
2019-01-31T06:30:21.558Z,97137.61
2019-01-31T06:32:50.994Z,97141.92
2019-01-31T06:35:20.507Z,97138.52
2019-01-31T06:37:49.931Z,97140.31
2019-01-31T06:40:21.511Z,97136.27
2019-01-31T06:42:51.113Z,97139.66
2019-01-31T06:45:22.393Z,97137.91
2019-01-31T06:47:51.819Z,97145.99
2019-01-31T06:50:21.326Z,97145.94
2019-01-31T06:52:50.753Z,97151.16
2019-01-31T06:55:20.197Z,97149.19
2019-01-31T06:57:49.634Z,97151.63
2019-01-31T07:00:24.276Z,97152.05
2019-01-31T07:02:53.776Z,97153.69
2019-01-31T07:05:23.220Z,97152.75
2019-01-31T07:07:52.650Z,97156.61
2019-01-31T07:10:25.205Z,97152.56
2019-01-31T07:12:54.643Z,97157.63
2019-01-31T07:15:24.086Z,97159.70
2019-01-31T07:17:53.516Z,97154.06
2019-01-31T07:20:22.963Z,97161.70
2019-01-31T07:22:52.386Z,97166.50
2019-01-31T07:25:24.723Z,97170.59
2019-01-31T07:27:54.151Z,97171.03
2019-01-31T07:30:26.673Z,97167.66
2019-01-31T07:32:55.652Z,97174.75
2019-01-31T07:35:25.094Z,97171.27
2019-01-31T07:37:54.525Z,97171.00
2019-01-31T07:40:24.417Z,97174.48
2019-01-31T07:42:53.833Z,97180.64
2019-01-31T07:45:31.748Z,97178.84
2019-01-31T07:48:01.387Z,97180.44
2019-01-31T07:50:30.895Z,97181.34
2019-01-31T07:53:00.328Z,97178.84
2019-01-31T07:55:29.769Z,97185.09
2019-01-31T07:57:59.204Z,97182.34
2019-01-31T08:00:28.652Z,97184.57
2019-01-31T08:02:58.165Z,97187.58
2019-01-31T08:05:27.605Z,97190.08
2019-01-31T08:07:58.074Z,97199.29
2019-01-31T08:10:40.113Z,97198.54
2019-01-31T08:13:09.723Z,97202.70
2019-01-31T08:15:39.167Z,97209.64
2019-01-31T08:18:10.930Z,97212.13
2019-01-31T08:20:39.778Z,97213.71
2019-01-31T08:23:10.325Z,97208.78
2019-01-31T08:25:40.065Z,97209.95
2019-01-31T08:28:09.947Z,97209.66
2019-01-31T08:30:44.232Z,97209.89
2019-01-31T08:33:13.670Z,97211.30
2019-01-31T08:35:43.105Z,97217.66
2019-01-31T08:38:12.547Z,97217.03
2019-01-31T08:40:42.057Z,97220.55
2019-01-31T08:43:11.502Z,97217.33
2019-01-31T08:45:40.942Z,97215.77
2019-01-31T08:48:10.458Z,97223.37
2019-01-31T08:50:40.026Z,97221.95
2019-01-31T08:53:09.464Z,97219.47
2019-01-31T08:55:38.961Z,97221.53
2019-01-31T08:58:08.401Z,97219.14
2019-01-31T09:00:37.833Z,97224.23
2019-01-31T09:03:07.342Z,97218.34
2019-01-31T09:05:36.779Z,97213.68
2019-01-31T09:08:06.212Z,97216.66
2019-01-31T09:10:39.517Z,97216.84
2019-01-31T09:13:11.167Z,97215.14
2019-01-31T09:15:40.731Z,97213.68
2019-01-31T09:18:10.237Z,97217.06
2019-01-31T09:20:56.676Z,97216.58
2019-01-31T09:23:48.796Z,97216.22
2019-01-31T09:27:06.112Z,97217.61
2019-01-31T09:29:49.333Z,97221.98
2019-01-31T09:32:50.862Z,97215.44
2019-01-31T09:35:36.789Z,97216.66
2019-01-31T09:38:28.881Z,97214.30
2019-01-31T09:41:11.866Z,97219.16
2019-01-31T09:43:51.795Z,97217.95
2019-01-31T09:46:31.692Z,97214.80
2019-01-31T09:49:45.266Z,97222.32
2019-01-31T09:52:31.241Z,97222.19
2019-01-31T09:55:56.241Z,97226.13
2019-01-31T09:58:36.228Z,97223.95
2019-01-31T10:01:52.602Z,97230.67
2019-01-31T10:04:35.407Z,97222.57
2019-01-31T10:07:35.975Z,97222.69
2019-01-31T10:10:38.452Z,97216.23
2019-01-31T10:13:51.407Z,97217.77
2019-01-31T10:16:34.098Z,97214.46
2019-01-31T10:19:37.130Z,97215.64
2019-01-31T10:22:32.597Z,97209.18
2019-01-31T10:25:23.994Z,97208.64
2019-01-31T10:28:22.311Z,97201.98
2019-01-31T10:31:17.369Z,97200.06
2019-01-31T10:34:05.687Z,97194.28
2019-01-31T10:36:39.828Z,97197.38
2019-01-31T10:39:31.911Z,97196.55
2019-01-31T10:42:30.262Z,97190.81
2019-01-31T10:45:39.478Z,97187.13
2019-01-31T10:48:31.632Z,97179.19
2019-01-31T10:51:17.357Z,97176.30
2019-01-31T10:54:09.674Z,97174.80
2019-01-31T10:57:07.619Z,97172.34
2019-01-31T10:59:44.321Z,97164.25
2019-01-31T11:02:34.806Z,97156.22
2019-01-31T11:05:30.073Z,97157.83
2019-01-31T11:08:20.594Z,97144.29
2019-01-31T11:11:12.536Z,97143.94
2019-01-31T11:14:16.371Z,97137.57
2019-01-31T11:17:28.446Z,97140.95
2019-01-31T11:20:23.546Z,97132.42
2019-01-31T11:23:12.540Z,97127.13
2019-01-31T11:26:18.579Z,97125.63
2019-01-31T11:29:18.522Z,97119.13
2019-01-31T11:32:07.215Z,97123.26
2019-01-31T11:34:49.416Z,97115.77
2019-01-31T11:37:31.827Z,97116.53
2019-01-31T11:40:30.068Z,97108.15
2019-01-31T11:43:13.224Z,97105.64
2019-01-31T11:46:09.881Z,97106.66
2019-01-31T11:49:01.914Z,97098.70
2019-01-31T11:52:11.689Z,97099.46
2019-01-31T11:54:57.623Z,97093.08
2019-01-31T11:58:12.069Z,97086.80
2019-01-31T12:00:41.512Z,97081.58
2019-01-31T12:03:11.311Z,97070.56
2019-01-31T12:05:40.812Z,97076.82
2019-01-31T12:08:10.309Z,97066.84
2019-01-31T12:10:39.820Z,97061.75
2019-01-31T12:13:09.320Z,97064.00
2019-01-31T12:15:38.830Z,97065.00
2019-01-31T12:18:09.010Z,97061.35
2019-01-31T12:20:38.501Z,97055.34
2019-01-31T12:23:07.929Z,97050.73
2019-01-31T12:25:37.369Z,97045.45
2019-01-31T12:28:06.800Z,97033.69
2019-01-31T12:30:36.249Z,97028.55
2019-01-31T12:33:06.164Z,97025.78
2019-01-31T12:35:35.655Z,97020.66
2019-01-31T12:38:05.373Z,97025.09
2019-01-31T12:40:34.797Z,97025.39
2019-01-31T12:43:04.235Z,97026.84
2019-01-31T12:45:33.660Z,97021.86
2019-01-31T12:48:03.164Z,97022.11
2019-01-31T12:50:32.596Z,97020.13
2019-01-31T12:53:02.209Z,97024.75
2019-01-31T12:55:31.702Z,97011.91
2019-01-31T12:58:01.252Z,97018.48
2019-01-31T13:00:30.911Z,97019.88
2019-01-31T13:03:00.342Z,97016.13
2019-01-31T13:05:29.766Z,97014.84
2019-01-31T13:07:59.206Z,97007.02
2019-01-31T13:10:28.635Z,97016.55
2019-01-31T13:12:58.515Z,97010.31
2019-01-31T13:15:29.439Z,97006.97
2019-01-31T13:17:59.117Z,97003.13
2019-01-31T13:20:28.547Z,96999.38
2019-01-31T13:22:58.120Z,96997.78
2019-01-31T13:25:28.253Z,97000.48
2019-01-31T13:27:57.762Z,96997.95
2019-01-31T13:30:27.504Z,96986.79
2019-01-31T13:32:57.979Z,96992.75
2019-01-31T13:35:27.412Z,96990.19
2019-01-31T13:37:56.847Z,96986.52
2019-01-31T13:40:27.384Z,96984.18
2019-01-31T13:42:57.331Z,96968.39
2019-01-31T13:45:32.869Z,96966.05
2019-01-31T13:48:06.418Z,96962.66
2019-01-31T13:50:36.015Z,96967.86
2019-01-31T13:53:08.354Z,96974.70
2019-01-31T13:55:37.940Z,96974.91
2019-01-31T13:58:10.100Z,96975.14
2019-01-31T14:00:38.871Z,96977.88
2019-01-31T14:03:08.376Z,96977.56
2019-01-31T14:05:37.797Z,96969.84
2019-01-31T14:08:07.682Z,96974.00
2019-01-31T14:10:37.549Z,96975.67
2019-01-31T14:13:07.027Z,96974.75
2019-01-31T14:15:36.688Z,96972.77
2019-01-31T14:18:06.437Z,96982.78
2019-01-31T14:20:36.746Z,96975.94
2019-01-31T14:23:06.521Z,96978.98
2019-01-31T14:25:37.589Z,96982.12
2019-01-31T14:28:07.102Z,96972.88
2019-01-31T14:30:38.270Z,96965.84
2019-01-31T14:33:13.142Z,96967.82
2019-01-31T14:35:42.921Z,96971.69
2019-01-31T14:38:12.359Z,96967.67
2019-01-31T14:40:42.034Z,96966.56
2019-01-31T14:43:11.665Z,96958.34
2019-01-31T14:45:41.087Z,96958.30
2019-01-31T14:48:10.533Z,96960.33
2019-01-31T14:50:40.088Z,96959.65
2019-01-31T14:53:09.464Z,96952.98
2019-01-31T14:55:38.958Z,96953.69
2019-01-31T14:58:10.299Z,96959.53
2019-01-31T15:00:39.724Z,96953.31
2019-01-31T15:03:09.160Z,96958.45
2019-01-31T15:05:38.654Z,96959.73
2019-01-31T15:08:08.430Z,96965.63
2019-01-31T15:10:37.864Z,96957.19
2019-01-31T15:13:07.516Z,96959.55
2019-01-31T15:15:36.943Z,96955.27
2019-01-31T15:18:07.289Z,96960.98
2019-01-31T15:20:42.716Z,96962.54
2019-01-31T15:23:12.223Z,96957.78
2019-01-31T15:25:41.723Z,96954.34
2019-01-31T15:28:11.165Z,96959.33
2019-01-31T15:30:40.666Z,96953.69
2019-01-31T15:33:12.585Z,96956.15
2019-01-31T15:35:42.148Z,96949.00
2019-01-31T15:38:11.758Z,96960.03
2019-01-31T15:40:48.602Z,96949.73
2019-01-31T15:43:18.036Z,96957.02
2019-01-31T15:45:47.471Z,96956.14
2019-01-31T15:48:18.243Z,96952.66
2019-01-31T15:50:47.686Z,96949.88
2019-01-31T15:53:17.104Z,96951.13
2019-01-31T15:55:46.543Z,96952.72
2019-01-31T15:58:15.974Z,96949.22
2019-01-31T16:00:49.195Z,96950.52
2019-01-31T16:03:20.532Z,96940.87
2019-01-31T16:05:50.336Z,96946.88
2019-01-31T16:08:19.764Z,96946.73
2019-01-31T16:10:49.320Z,96949.03
2019-01-31T16:13:18.876Z,96946.94
2019-01-31T16:15:48.388Z,96946.35
2019-01-31T16:18:17.888Z,96935.55
2019-01-31T16:20:47.394Z,96940.14
2019-01-31T16:23:17.362Z,96943.08
2019-01-31T16:25:47.924Z,96951.14
2019-01-31T16:28:17.619Z,96943.56
2019-01-31T16:30:47.399Z,96950.39
2019-01-31T16:33:16.819Z,96945.27
2019-01-31T16:35:46.431Z,96940.08
2019-01-31T16:38:15.853Z,96933.41
2019-01-31T16:40:45.380Z,96923.91
2019-01-31T16:43:14.861Z,96930.78
2019-01-31T16:45:46.157Z,96927.91
2019-01-31T16:48:15.519Z,96936.92
2019-01-31T16:50:45.027Z,96921.00
2019-01-31T16:53:14.457Z,96918.67
2019-01-31T16:55:43.896Z,96912.34
2019-01-31T16:58:13.397Z,96903.03
2019-01-31T17:00:43.873Z,96890.18
2019-01-31T17:03:13.426Z,96887.27
2019-01-31T17:05:43.193Z,96892.14
2019-01-31T17:08:12.617Z,96893.65
2019-01-31T17:10:42.057Z,96900.63
2019-01-31T17:13:11.552Z,96897.31
2019-01-31T17:15:40.985Z,96891.66
2019-01-31T17:18:10.413Z,96895.39
2019-01-31T17:20:42.364Z,96894.47
2019-01-31T17:23:11.759Z,96883.65
2019-01-31T17:25:41.198Z,96882.06
2019-01-31T17:28:10.627Z,96885.96
2019-01-31T17:30:40.066Z,96901.89
2019-01-31T17:33:09.565Z,96894.52
2019-01-31T17:35:39.007Z,96885.72
2019-01-31T17:38:08.680Z,96889.39
2019-01-31T17:40:39.260Z,96887.14
2019-01-31T17:43:09.127Z,96893.45
2019-01-31T17:45:38.563Z,96897.34
2019-01-31T17:48:09.969Z,96893.05
2019-01-31T17:50:39.404Z,96889.64
2019-01-31T17:53:08.838Z,96889.91
2019-01-31T17:55:38.263Z,96893.00
2019-01-31T17:58:07.771Z,96888.02
2019-01-31T18:00:43.071Z,96883.48
2019-01-31T18:03:12.870Z,96882.48
2019-01-31T18:05:42.363Z,96881.64
2019-01-31T18:08:11.882Z,96882.63
2019-01-31T18:10:41.374Z,96889.34
2019-01-31T18:13:10.813Z,96894.59
2019-01-31T18:15:42.291Z,96890.94
2019-01-31T18:18:11.397Z,96878.45
2019-01-31T18:20:40.820Z,96876.66
2019-01-31T18:23:10.269Z,96879.90
2019-01-31T18:25:39.696Z,96867.63
2019-01-31T18:28:09.135Z,96857.67
2019-01-31T18:30:39.496Z,96850.39
2019-01-31T18:33:08.932Z,96840.41
2019-01-31T18:35:38.357Z,96846.46
2019-01-31T18:38:07.799Z,96849.09
2019-01-31T18:40:37.598Z,96850.51
2019-01-31T18:43:07.295Z,96841.73
2019-01-31T18:45:37.469Z,96833.94
2019-01-31T18:48:07.743Z,96828.47
2019-01-31T18:50:40.852Z,96807.31
2019-01-31T18:53:10.521Z,96807.97
2019-01-31T18:55:40.021Z,96802.28
2019-01-31T18:58:09.451Z,96795.00
2019-01-31T19:00:45.445Z,96785.12
2019-01-31T19:03:14.942Z,96787.95
2019-01-31T19:05:44.713Z,96790.16
2019-01-31T19:08:14.146Z,96783.20
2019-01-31T19:10:44.018Z,96785.83
2019-01-31T19:13:13.552Z,96781.77
2019-01-31T19:15:42.975Z,96779.58
2019-01-31T19:18:12.421Z,96768.94
2019-01-31T19:20:41.985Z,96771.34
2019-01-31T19:23:11.493Z,96763.41
2019-01-31T19:25:40.917Z,96751.61
2019-01-31T19:28:13.097Z,96750.34
2019-01-31T19:30:41.907Z,96745.03
2019-01-31T19:33:11.344Z,96739.38
2019-01-31T19:35:40.838Z,96731.36
2019-01-31T19:38:10.611Z,96726.78
2019-01-31T19:40:43.047Z,96727.09
2019-01-31T19:43:12.476Z,96723.11
2019-01-31T19:45:48.103Z,96720.05
2019-01-31T19:48:17.539Z,96722.95
2019-01-31T19:50:47.039Z,96712.83
2019-01-31T19:53:16.522Z,96716.37
2019-01-31T19:55:45.975Z,96712.55
2019-01-31T19:58:15.457Z,96706.89
2019-01-31T20:00:44.888Z,96705.02
2019-01-31T20:03:14.385Z,96700.30
2019-01-31T20:05:43.812Z,96698.87
2019-01-31T20:08:13.799Z,96691.30
2019-01-31T20:10:43.480Z,96691.13
2019-01-31T20:13:12.990Z,96695.19
2019-01-31T20:15:43.153Z,96696.47
2019-01-31T20:18:12.798Z,96695.19
2019-01-31T20:20:42.873Z,96694.28
2019-01-31T20:23:12.515Z,96688.29
2019-01-31T20:25:42.011Z,96694.43
2019-01-31T20:28:11.507Z,96689.60
2019-01-31T20:30:40.942Z,96691.63
2019-01-31T20:33:10.492Z,96687.28
2019-01-31T20:35:39.921Z,96690.52
2019-01-31T20:38:09.416Z,96693.39
2019-01-31T20:40:40.493Z,96695.69
2019-01-31T20:43:10.332Z,96696.36
2019-01-31T20:45:39.766Z,96697.23
2019-01-31T20:48:09.329Z,96693.80
2019-01-31T20:50:40.174Z,96693.41
2019-01-31T20:53:09.846Z,96696.80
2019-01-31T20:55:39.268Z,96693.04
2019-01-31T20:58:08.764Z,96691.77
2019-01-31T21:00:41.517Z,96692.35
2019-01-31T21:03:11.550Z,96696.87
2019-01-31T21:05:41.589Z,96696.87
2019-01-31T21:08:11.755Z,96695.73
2019-01-31T21:10:41.193Z,96699.84
2019-01-31T21:13:10.620Z,96693.30
2019-01-31T21:15:40.128Z,96685.48
2019-01-31T21:18:10.098Z,96679.87
2019-01-31T21:20:39.669Z,96670.18
2019-01-31T21:23:10.434Z,96662.34
2019-01-31T21:25:39.871Z,96650.63
2019-01-31T21:28:09.304Z,96642.84
2019-01-31T21:30:40.443Z,96636.89
2019-01-31T21:33:10.013Z,96624.96
2019-01-31T21:35:39.589Z,96617.35
2019-01-31T21:38:09.088Z,96611.58
2019-01-31T21:40:38.595Z,96612.91
2019-01-31T21:43:08.157Z,96615.72
2019-01-31T21:45:37.733Z,96617.61
2019-01-31T21:48:07.468Z,96619.10
2019-01-31T21:50:37.497Z,96607.48
2019-01-31T21:53:07.063Z,96609.92
2019-01-31T21:55:36.574Z,96610.22
2019-01-31T21:58:06.341Z,96603.66
2019-01-31T22:00:36.657Z,96596.23
2019-01-31T22:03:07.289Z,96591.06
2019-01-31T22:05:39.837Z,96588.38
2019-01-31T22:08:09.334Z,96593.01
2019-01-31T22:10:38.764Z,96587.19
2019-01-31T22:13:08.193Z,96589.35
2019-01-31T22:15:37.768Z,96599.30
2019-01-31T22:18:07.337Z,96604.89
2019-01-31T22:20:36.840Z,96595.51
2019-01-31T22:23:06.339Z,96585.82
2019-01-31T22:25:35.771Z,96585.44
2019-01-31T22:28:06.728Z,96576.14
2019-01-31T22:30:37.607Z,96567.94
2019-01-31T22:33:07.773Z,96556.80
2019-01-31T22:35:37.221Z,96553.89
2019-01-31T22:38:06.957Z,96543.20
2019-01-31T22:40:36.395Z,96540.77
2019-01-31T22:43:06.060Z,96551.46
2019-01-31T22:45:35.578Z,96563.31
2019-01-31T22:48:06.941Z,96557.94
2019-01-31T22:50:36.380Z,96559.22
2019-01-31T22:53:06.108Z,96557.94
2019-01-31T22:55:35.548Z,96553.97
2019-01-31T22:58:05.570Z,96547.97
2019-01-31T23:01:05.516Z,96537.78
2019-01-31T23:03:35.010Z,96528.62
2019-01-31T23:06:05.557Z,96511.09
2019-01-31T23:08:35.018Z,96504.34
2019-01-31T23:11:04.790Z,96499.44
2019-01-31T23:13:34.218Z,96496.08
2019-01-31T23:16:03.657Z,96471.50
2019-01-31T23:18:33.197Z,96471.17
2019-01-31T23:21:02.602Z,96468.80
2019-01-31T23:23:32.029Z,96471.50
2019-01-31T23:26:01.940Z,96480.45
2019-01-31T23:28:31.375Z,96480.74
2019-01-31T23:31:00.808Z,96472.06
2019-01-31T23:33:30.238Z,96469.15
2019-01-31T23:35:59.678Z,96466.80
2019-01-31T23:38:29.104Z,96460.02
2019-01-31T23:40:58.562Z,96463.52
2019-01-31T23:43:27.988Z,96467.50
2019-01-31T23:45:57.425Z,96467.70
2019-01-31T23:48:26.850Z,96468.72
2019-01-31T23:50:56.353Z,96470.80
2019-01-31T23:53:25.795Z,96472.73
2019-01-31T23:55:55.336Z,96475.91
2019-01-31T23:58:24.729Z,96473.84
